createdAt,value
2022-11-16T00:01:09.000Z,100149.66
2022-11-16T00:03:36.812Z,100147.03
2022-11-16T00:06:06.397Z,100123.28
2022-11-16T00:08:37.011Z,100138.66
2022-11-16T00:11:18.043Z,100139.28
2022-11-16T00:13:45.889Z,100118.91
2022-11-16T00:16:16.456Z,100133.72
2022-11-16T00:18:44.300Z,100135.66
2022-11-16T00:21:11.779Z,100125.00
2022-11-16T00:23:39.611Z,100115.37
2022-11-16T00:26:09.314Z,100117.47
2022-11-16T00:28:36.891Z,100108.06
2022-11-16T00:31:06.493Z,100122.81
2022-11-16T00:33:34.689Z,100115.22
2022-11-16T00:36:11.399Z,100109.66
2022-11-16T00:38:39.868Z,100109.34
2022-11-16T00:41:07.950Z,100106.41
2022-11-16T00:43:36.295Z,100098.22
2022-11-16T00:46:04.547Z,100096.09
2022-11-16T00:48:32.409Z,100089.78
2022-11-16T00:51:00.306Z,100098.37
2022-11-16T00:53:28.014Z,100090.28
2022-11-16T00:55:55.523Z,100085.91
2022-11-16T00:58:23.113Z,100084.56
2022-11-16T01:00:51.346Z,100077.28
2022-11-16T01:03:19.011Z,100086.94
2022-11-16T01:05:47.080Z,100085.97
2022-11-16T01:08:15.173Z,100075.91
2022-11-16T01:10:42.685Z,100073.16
2022-11-16T01:13:11.592Z,100073.22
2022-11-16T01:15:39.395Z,100070.38
2022-11-16T01:18:06.866Z,100055.94
2022-11-16T01:20:34.310Z,100048.78
2022-11-16T01:23:02.082Z,100065.16
2022-11-16T01:25:29.531Z,100047.78
2022-11-16T01:27:56.987Z,100041.72
2022-11-16T01:30:25.093Z,100038.53
2022-11-16T01:32:53.605Z,100020.47
2022-11-16T01:35:21.188Z,100025.22
2022-11-16T01:37:49.526Z,100013.53
2022-11-16T01:40:17.207Z,100020.72
2022-11-16T01:42:44.827Z,100021.75
2022-11-16T01:45:29.180Z,100011.19
2022-11-16T01:47:57.215Z,99999.00
2022-11-16T01:50:25.459Z,99997.28
2022-11-16T01:52:57.611Z,99996.75
2022-11-16T01:55:27.819Z,99983.19
2022-11-16T01:57:56.638Z,99965.16
2022-11-16T02:00:24.268Z,99986.47
2022-11-16T02:02:52.399Z,99981.28
2022-11-16T02:05:22.694Z,99979.03
2022-11-16T02:08:31.980Z,99968.41
2022-11-16T02:11:07.693Z,99962.41
2022-11-16T02:13:51.408Z,99957.88
2022-11-16T02:16:35.445Z,99936.56
2022-11-16T02:19:25.169Z,99945.75
2022-11-16T02:22:09.268Z,99938.03
2022-11-16T02:25:12.444Z,99943.50
2022-11-16T02:28:12.069Z,99942.50
2022-11-16T02:30:44.281Z,99930.31
2022-11-16T02:33:13.768Z,99912.75
2022-11-16T02:35:47.886Z,99938.66
2022-11-16T02:38:20.406Z,99935.03
2022-11-16T02:40:53.004Z,99926.47
2022-11-16T02:43:34.982Z,99917.50
2022-11-16T02:46:05.925Z,99917.53
2022-11-16T02:48:43.691Z,99913.31
2022-11-16T02:51:11.599Z,99908.91
2022-11-16T02:53:52.585Z,99913.44
2022-11-16T02:56:20.486Z,99909.28
2022-11-16T02:58:48.122Z,99909.19
2022-11-16T03:01:22.240Z,99904.84
2022-11-16T03:03:54.415Z,99899.66
2022-11-16T03:06:30.001Z,99904.03
2022-11-16T03:09:07.829Z,99898.72
2022-11-16T03:11:55.389Z,99896.97
2022-11-16T03:14:25.780Z,99887.06
2022-11-16T03:16:57.007Z,99897.25
2022-11-16T03:19:42.707Z,99896.41
2022-11-16T03:22:30.920Z,99897.13
2022-11-16T03:24:58.847Z,99875.94
2022-11-16T03:28:08.129Z,99883.44
2022-11-16T03:30:40.949Z,99885.09
2022-11-16T03:33:11.631Z,99885.94
2022-11-16T03:35:49.670Z,99882.69
2022-11-16T03:38:19.136Z,99875.59
2022-11-16T03:40:47.730Z,99882.59
2022-11-16T03:43:16.015Z,99880.41
2022-11-16T03:45:44.261Z,99867.72
2022-11-16T03:48:12.559Z,99873.19
2022-11-16T03:50:41.190Z,99854.09
2022-11-16T03:53:09.323Z,99868.88
2022-11-16T03:55:37.689Z,99868.31
2022-11-16T03:58:05.857Z,99865.56
2022-11-16T04:00:34.014Z,99862.94
2022-11-16T04:03:07.197Z,99849.06
2022-11-16T04:05:53.521Z,99848.69
2022-11-16T04:08:39.842Z,99851.75
2022-11-16T04:11:30.684Z,99857.88
2022-11-16T04:14:17.049Z,99846.75
2022-11-16T04:17:02.972Z,99832.78
2022-11-16T04:19:50.929Z,99835.88
2022-11-16T04:22:44.340Z,99836.66
2022-11-16T04:25:16.080Z,99840.91
2022-11-16T04:28:02.046Z,99843.19
2022-11-16T04:30:50.045Z,99831.50
2022-11-16T04:33:36.946Z,99826.09
2022-11-16T04:36:23.450Z,99805.47
2022-11-16T04:38:51.003Z,99823.78
2022-11-16T04:41:37.414Z,99812.16
2022-11-16T04:44:04.904Z,99803.47
2022-11-16T04:46:51.690Z,99802.53
2022-11-16T04:49:19.339Z,99800.84
2022-11-16T04:51:47.582Z,99804.53
2022-11-16T04:54:15.543Z,99802.69
2022-11-16T04:56:43.131Z,99808.94
2022-11-16T04:59:11.205Z,99813.19
2022-11-16T05:01:57.662Z,99813.09
2022-11-16T05:04:25.463Z,99809.50
2022-11-16T05:06:53.042Z,99815.56
2022-11-16T05:09:20.610Z,99814.06
2022-11-16T05:11:48.419Z,99821.09
2022-11-16T05:14:15.889Z,99818.84
2022-11-16T05:16:43.757Z,99814.91
2022-11-16T05:19:30.413Z,99795.28
2022-11-16T05:21:58.830Z,99810.37
2022-11-16T05:24:35.436Z,99811.31
2022-11-16T05:27:13.019Z,99803.31
2022-11-16T05:29:42.055Z,99804.06
2022-11-16T05:32:11.807Z,99809.50
2022-11-16T05:34:39.966Z,99790.00
2022-11-16T05:37:08.014Z,99795.59
2022-11-16T05:39:35.960Z,99784.12
2022-11-16T05:42:04.519Z,99790.09
2022-11-16T05:44:33.117Z,99765.94
2022-11-16T05:47:01.106Z,99787.47
2022-11-16T05:49:28.890Z,99783.84
2022-11-16T05:51:56.694Z,99774.38
2022-11-16T05:54:25.939Z,99775.84
2022-11-16T05:56:54.666Z,99767.06
2022-11-16T05:59:23.925Z,99782.78
2022-11-16T06:01:51.718Z,99783.81
2022-11-16T06:04:24.647Z,99775.78
2022-11-16T06:06:53.895Z,99790.28
2022-11-16T06:09:21.785Z,99774.09
2022-11-16T06:11:49.747Z,99773.41
2022-11-16T06:14:17.266Z,99748.47
2022-11-16T06:16:45.027Z,99761.44
2022-11-16T06:19:12.696Z,99759.34
2022-11-16T06:21:40.277Z,99754.53
2022-11-16T06:24:09.629Z,99775.75
2022-11-16T06:26:37.383Z,99777.06
2022-11-16T06:29:05.191Z,99768.28
2022-11-16T06:31:33.719Z,99767.19
2022-11-16T06:34:01.321Z,99768.78
2022-11-16T06:36:29.187Z,99767.91
2022-11-16T06:39:00.342Z,99771.34
2022-11-16T06:41:28.054Z,99754.94
2022-11-16T06:43:56.849Z,99773.72
2022-11-16T06:46:25.665Z,99768.16
2022-11-16T06:48:53.356Z,99775.31
2022-11-16T06:51:20.857Z,99762.97
2022-11-16T06:53:48.724Z,99766.53
2022-11-16T06:56:16.561Z,99741.25
2022-11-16T06:58:45.022Z,99758.19
2022-11-16T07:01:13.500Z,99748.50
2022-11-16T07:03:41.465Z,99744.19
2022-11-16T07:06:11.302Z,99745.97
2022-11-16T07:08:39.431Z,99751.34
2022-11-16T07:11:08.665Z,99754.12
2022-11-16T07:13:37.406Z,99744.63
2022-11-16T07:16:10.101Z,99749.66
2022-11-16T07:18:40.727Z,99737.81
2022-11-16T07:21:11.430Z,99739.84
2022-11-16T07:23:39.088Z,99735.69
2022-11-16T07:26:10.163Z,99724.44
2022-11-16T07:28:46.725Z,99726.00
2022-11-16T07:31:16.955Z,99725.91
2022-11-16T07:33:44.873Z,99717.34
2022-11-16T07:36:16.714Z,99727.69
2022-11-16T07:38:44.627Z,99719.56
2022-11-16T07:41:18.265Z,99721.19
2022-11-16T07:43:52.596Z,99711.19
2022-11-16T07:49:19.488Z,99700.06
2022-11-16T07:51:50.990Z,99694.00
2022-11-16T07:54:19.294Z,99683.72
2022-11-16T07:56:47.338Z,99685.03
2022-11-16T07:59:14.940Z,99694.19
2022-11-16T08:01:47.252Z,99694.13
2022-11-16T08:04:17.515Z,99695.34
2022-11-16T08:06:49.079Z,99690.78
2022-11-16T08:09:18.325Z,99681.97
2022-11-16T08:11:47.129Z,99690.38
2022-11-16T08:14:15.790Z,99681.81
2022-11-16T08:16:43.642Z,99682.91
2022-11-16T08:19:12.891Z,99696.16
2022-11-16T08:21:40.365Z,99683.22
2022-11-16T08:24:08.619Z,99669.25
2022-11-16T08:26:36.749Z,99675.00
2022-11-16T08:29:04.685Z,99686.84
2022-11-16T08:31:34.049Z,99679.50
2022-11-16T08:34:02.199Z,99687.28
2022-11-16T08:36:33.628Z,99683.44
2022-11-16T08:39:02.265Z,99675.53
2022-11-16T08:41:30.935Z,99680.13
2022-11-16T08:43:59.390Z,99668.34
2022-11-16T08:46:27.235Z,99665.25
2022-11-16T08:48:57.112Z,99662.72
2022-11-16T08:51:25.402Z,99659.81
2022-11-16T08:53:58.737Z,99662.25
2022-11-16T08:56:27.458Z,99682.16
2022-11-16T08:58:58.593Z,99672.50
2022-11-16T09:01:28.951Z,99666.78
2022-11-16T09:03:57.300Z,99659.47
2022-11-16T09:06:26.788Z,99664.97
2022-11-16T09:08:54.824Z,99653.66
2022-11-16T09:11:23.986Z,99668.88
2022-11-16T09:13:53.638Z,99676.81
2022-11-16T09:16:21.498Z,99661.31
2022-11-16T09:18:50.823Z,99663.34
2022-11-16T09:21:20.416Z,99646.03
2022-11-16T09:23:48.865Z,99663.16
2022-11-16T09:26:19.142Z,99665.56
2022-11-16T09:28:47.859Z,99658.25
2022-11-16T09:31:20.295Z,99657.78
2022-11-16T09:33:51.447Z,99659.38
2022-11-16T09:36:20.643Z,99657.22
2022-11-16T09:39:25.809Z,99647.19
2022-11-16T09:42:16.297Z,99647.28
2022-11-16T09:44:43.716Z,99644.47
2022-11-16T09:47:22.585Z,99624.56
2022-11-16T09:50:01.553Z,99630.66
2022-11-16T09:52:34.799Z,99617.63
2022-11-16T09:55:26.342Z,99604.37
2022-11-16T09:57:56.252Z,99599.94
2022-11-16T10:00:24.360Z,99616.66
2022-11-16T10:03:17.229Z,99604.91
2022-11-16T10:05:52.026Z,99589.84
2022-11-16T10:08:38.922Z,99588.59
2022-11-16T10:11:42.799Z,99586.72
2022-11-16T10:14:41.377Z,99582.41
2022-11-16T10:17:14.888Z,99588.50
2022-11-16T10:20:05.009Z,99580.63
2022-11-16T10:22:51.923Z,99577.72
2022-11-16T10:25:25.254Z,99573.47
2022-11-16T10:28:14.777Z,99576.00
2022-11-16T10:30:59.972Z,99550.78
2022-11-16T10:33:35.584Z,99564.06
2022-11-16T10:36:11.976Z,99551.50
2022-11-16T10:38:40.569Z,99550.75
2022-11-16T10:41:40.289Z,99536.84
2022-11-16T10:44:24.589Z,99521.28
2022-11-16T10:47:00.701Z,99520.13
2022-11-16T10:49:50.216Z,99513.81
2022-11-16T10:52:18.110Z,99517.81
2022-11-16T10:54:45.727Z,99515.84
2022-11-16T10:57:17.601Z,99503.22
2022-11-16T10:59:48.347Z,99503.31
2022-11-16T11:02:25.292Z,99495.03
2022-11-16T11:05:02.375Z,99496.22
2022-11-16T11:07:35.843Z,99482.34
2022-11-16T11:10:05.188Z,99484.75
2022-11-16T11:12:39.180Z,99498.19
2022-11-16T11:15:28.462Z,99490.16
2022-11-16T11:18:15.406Z,99471.88
2022-11-16T11:20:47.297Z,99470.38
2022-11-16T11:23:23.126Z,99471.03
2022-11-16T11:25:51.643Z,99470.56
2022-11-16T11:28:34.131Z,99449.31
2022-11-16T11:31:04.293Z,99475.72
2022-11-16T11:33:44.224Z,99461.72
2022-11-16T11:36:21.816Z,99463.12
2022-11-16T11:39:08.305Z,99460.28
2022-11-16T11:41:44.148Z,99460.00
2022-11-16T11:44:20.971Z,99465.69
2022-11-16T11:47:50.398Z,99468.13
2022-11-16T11:49:43.188Z,99464.50
2022-11-16T11:52:17.680Z,99470.38
2022-11-16T11:54:49.286Z,99463.56
2022-11-16T11:57:23.387Z,99461.03
2022-11-16T11:59:53.382Z,99460.75
2022-11-16T12:02:47.310Z,99444.41
2022-11-16T12:05:43.194Z,99450.97
2022-11-16T12:08:26.374Z,99442.19
2022-11-16T12:11:03.188Z,99467.00
2022-11-16T12:13:37.103Z,99453.97
2022-11-16T12:16:17.121Z,99449.03
2022-11-16T12:19:05.267Z,99437.75
2022-11-16T12:21:51.331Z,99431.13
2022-11-16T12:24:53.391Z,99433.94
2022-11-16T12:27:34.484Z,99438.25
2022-11-16T12:30:17.967Z,99431.84
2022-11-16T12:32:58.181Z,99423.63
2022-11-16T12:35:31.157Z,99434.78
2022-11-16T12:38:27.663Z,99427.66
2022-11-16T12:41:18.697Z,99422.47
2022-11-16T12:43:56.131Z,99428.59
2022-11-16T12:46:33.633Z,99425.97
2022-11-16T12:49:29.732Z,99423.13
2022-11-16T12:52:09.408Z,99426.59
2022-11-16T12:55:26.915Z,99422.09
2022-11-16T12:58:08.572Z,99421.13
2022-11-16T13:00:48.062Z,99405.97
2022-11-16T13:03:33.537Z,99405.47
2022-11-16T13:06:09.392Z,99399.44
2022-11-16T13:08:52.200Z,99376.72
2022-11-16T13:11:27.397Z,99388.72
2022-11-16T13:14:01.659Z,99387.22
2022-11-16T13:16:30.100Z,99388.47
2022-11-16T13:18:58.672Z,99383.50
2022-11-16T13:21:44.680Z,99378.88
2022-11-16T13:24:38.302Z,99378.16
2022-11-16T13:27:15.404Z,99382.34
2022-11-16T13:30:00.725Z,99378.81
2022-11-16T13:32:52.718Z,99377.09
2022-11-16T13:35:21.063Z,99375.22
2022-11-16T13:37:50.588Z,99373.53
2022-11-16T13:40:23.218Z,99366.38
2022-11-16T13:43:12.304Z,99358.59
2022-11-16T13:45:55.192Z,99358.81
2022-11-16T13:48:28.179Z,99362.47
2022-11-16T13:50:58.052Z,99370.91
2022-11-16T13:56:16.836Z,99369.13
2022-11-16T13:59:00.708Z,99362.91
2022-11-16T14:01:58.174Z,99356.50
2022-11-16T14:04:53.405Z,99352.09
2022-11-16T14:07:47.285Z,99346.44
2022-11-16T14:10:47.629Z,99352.34
2022-11-16T14:13:30.334Z,99351.47
2022-11-16T14:16:24.537Z,99349.06
2022-11-16T14:19:00.209Z,99346.44
2022-11-16T14:21:59.396Z,99344.66
2022-11-16T14:24:36.934Z,99341.19
2022-11-16T14:27:09.588Z,99334.31
2022-11-16T14:29:40.239Z,99333.69
2022-11-16T14:32:26.120Z,99323.16
2022-11-16T14:34:55.557Z,99318.84
2022-11-16T14:37:24.549Z,99318.84
2022-11-16T14:39:53.697Z,99315.91
2022-11-16T14:42:27.099Z,99304.28
2022-11-16T14:45:00.926Z,99315.06
2022-11-16T14:47:30.635Z,99316.75
2022-11-16T14:49:58.475Z,99319.38
2022-11-16T14:52:35.712Z,99307.19
2022-11-16T14:55:07.748Z,99297.59
2022-11-16T14:57:35.570Z,99295.91
2022-11-16T15:00:20.657Z,99295.19
2022-11-16T15:02:57.617Z,99290.88
2022-11-16T15:05:33.001Z,99284.75
2022-11-16T15:08:01.439Z,99285.69
2022-11-16T15:10:29.504Z,99281.59
2022-11-16T15:12:57.515Z,99284.13
2022-11-16T15:15:30.774Z,99280.62
2022-11-16T15:17:58.690Z,99287.69
2022-11-16T15:20:28.958Z,99280.88
2022-11-16T15:23:00.959Z,99270.44
2022-11-16T15:25:40.585Z,99277.59
2022-11-16T15:28:17.479Z,99276.94
2022-11-16T15:30:49.111Z,99272.97
2022-11-16T15:33:18.616Z,99267.91
2022-11-16T15:35:47.323Z,99271.38
2022-11-16T15:38:28.545Z,99257.78
2022-11-16T15:40:59.183Z,99262.53
2022-11-16T15:43:31.696Z,99271.38
2022-11-16T15:46:00.164Z,99268.75
2022-11-16T15:48:28.763Z,99272.19
2022-11-16T15:51:04.678Z,99257.13
2022-11-16T15:53:45.302Z,99269.78
2022-11-16T15:56:28.322Z,99262.63
2022-11-16T15:58:59.643Z,99269.78
2022-11-16T16:11:33.296Z,99256.56
2022-11-16T16:20:49.383Z,99244.34
2022-11-16T16:52:34.946Z,99242.00
2022-11-16T16:55:39.995Z,99242.97
2022-11-16T16:58:12.014Z,99243.72
2022-11-16T17:00:40.584Z,99243.81
2022-11-16T17:03:08.345Z,99252.84
2022-11-16T17:05:35.878Z,99233.78
2022-11-16T17:08:03.919Z,99247.25
2022-11-16T17:10:31.653Z,99240.13
2022-11-16T17:13:02.449Z,99255.25
2022-11-16T17:15:30.754Z,99247.25
2022-11-16T17:17:59.381Z,99240.13
2022-11-16T17:20:27.261Z,99238.47
2022-11-16T17:22:55.732Z,99233.72
2022-11-16T17:25:23.387Z,99232.97
2022-11-16T17:27:51.098Z,99222.69
2022-11-16T17:30:19.156Z,99240.03
2022-11-16T17:32:46.812Z,99237.72
2022-11-16T17:35:14.347Z,99220.12
2022-11-16T17:37:42.347Z,99228.22
2022-11-16T17:40:10.418Z,99225.22
2022-11-16T17:42:38.160Z,99217.22
2022-11-16T17:45:06.671Z,99205.97
2022-11-16T17:47:34.379Z,99197.97
2022-11-16T17:50:02.180Z,99211.13
2022-11-16T17:52:30.094Z,99202.31
2022-11-16T17:54:57.576Z,99185.09
2022-11-16T17:57:25.189Z,99198.75
2022-11-16T17:59:53.070Z,99186.75
2022-11-16T18:02:20.515Z,99204.09
2022-11-16T18:04:51.276Z,99200.53
2022-11-16T18:07:19.315Z,99196.62
2022-11-16T18:09:47.036Z,99188.09
2022-11-16T18:12:15.045Z,99189.28
2022-11-16T18:14:59.900Z,99191.81
2022-11-16T18:17:31.340Z,99187.16
2022-11-16T18:19:59.100Z,99182.22
2022-11-16T18:22:26.712Z,99182.03
2022-11-16T18:24:54.398Z,99163.81
2022-11-16T18:27:22.198Z,99174.56
2022-11-16T18:29:50.126Z,99174.56
2022-11-16T18:32:18.129Z,99181.50
2022-11-16T18:34:45.919Z,99173.19
2022-11-16T18:37:13.619Z,99175.81
2022-11-16T18:39:41.752Z,99181.38
2022-11-16T18:42:11.761Z,99170.66
2022-11-16T18:44:39.330Z,99169.09
2022-11-16T18:47:07.336Z,99178.25
2022-11-16T18:49:34.869Z,99176.44
2022-11-16T18:52:02.711Z,99172.16
2022-11-16T18:54:30.706Z,99166.12
2022-11-16T18:56:58.584Z,99166.44
2022-11-16T18:59:26.397Z,99166.44
2022-11-16T19:01:55.176Z,99157.94
2022-11-16T19:04:22.955Z,99164.91
2022-11-16T19:06:50.692Z,99162.78
2022-11-16T19:09:19.085Z,99154.59
2022-11-16T19:11:47.042Z,99163.09
2022-11-16T19:14:14.762Z,99159.41
2022-11-16T19:16:52.617Z,99167.09
2022-11-16T19:19:22.097Z,99165.72
2022-11-16T19:21:51.886Z,99161.72
2022-11-16T19:24:19.577Z,99150.59
2022-11-16T19:26:47.342Z,99170.34
2022-11-16T19:29:15.718Z,99159.09
2022-11-16T19:31:43.255Z,99151.84
2022-11-16T19:34:13.291Z,99156.19
2022-11-16T19:36:41.510Z,99152.69
2022-11-16T19:39:09.292Z,99155.41
2022-11-16T19:41:37.086Z,99148.50
2022-11-16T19:44:04.881Z,99137.53
2022-11-16T19:46:33.253Z,99151.97
2022-11-16T19:49:01.237Z,99157.22
2022-11-16T19:51:31.468Z,99156.19
2022-11-16T19:54:00.249Z,99142.59
2022-11-16T19:56:28.132Z,99153.53
2022-11-16T19:58:56.350Z,99153.63
2022-11-16T20:01:27.695Z,99153.53
2022-11-16T20:03:57.971Z,99134.84
2022-11-16T20:06:29.769Z,99153.44
2022-11-16T20:09:08.352Z,99158.81
2022-11-16T20:11:37.968Z,99159.72
2022-11-16T20:14:08.095Z,99164.16
2022-11-16T20:16:39.283Z,99161.44
2022-11-16T20:19:08.939Z,99157.94
2022-11-16T20:21:38.572Z,99154.37
2022-11-16T20:24:08.678Z,99153.63
2022-11-16T20:26:37.401Z,99154.91
2022-11-16T20:29:05.224Z,99160.34
2022-11-16T20:31:33.614Z,99150.59
2022-11-16T20:34:03.678Z,99154.06
2022-11-16T20:36:32.630Z,99149.66
2022-11-16T20:39:04.785Z,99146.25
2022-11-16T20:41:33.370Z,99143.62
2022-11-16T20:44:01.729Z,99141.84
2022-11-16T20:46:32.682Z,99146.25
2022-11-16T20:49:03.623Z,99146.69
2022-11-16T20:51:31.319Z,99132.81
2022-11-16T20:53:59.238Z,99143.12
2022-11-16T20:56:27.614Z,99132.81
2022-11-16T20:58:55.146Z,99140.91
2022-11-16T21:01:34.155Z,99135.03
2022-11-16T21:04:04.450Z,99121.56
2022-11-16T21:06:32.642Z,99134.81
2022-11-16T21:09:00.990Z,99134.41
2022-11-16T21:11:30.723Z,99135.13
2022-11-16T21:14:16.025Z,99130.19
2022-11-16T21:16:43.880Z,99126.84
2022-11-16T21:19:11.990Z,99119.13
2022-11-16T21:21:40.804Z,99110.28
2022-11-16T21:24:09.277Z,99118.88
2022-11-16T21:26:37.351Z,99118.03
2022-11-16T21:29:05.346Z,99119.94
2022-11-16T21:31:34.982Z,99098.50
2022-11-16T21:34:02.705Z,99115.63
2022-11-16T21:36:31.989Z,99114.88
2022-11-16T21:39:00.014Z,99108.91
2022-11-16T21:41:27.567Z,99101.94
2022-11-16T21:43:55.256Z,99112.56
2022-11-16T21:46:26.953Z,99105.00
2022-11-16T21:48:56.434Z,99111.09
2022-11-16T21:51:26.436Z,99113.19
2022-11-16T21:53:54.307Z,99116.66
2022-11-16T21:56:23.669Z,99122.84
2022-11-16T21:58:55.386Z,99119.47
2022-11-16T22:01:23.480Z,99117.03
2022-11-16T22:04:11.519Z,99117.87
2022-11-16T22:06:57.367Z,99114.91
2022-11-16T22:09:25.206Z,99109.91
2022-11-16T22:11:52.861Z,99108.84
2022-11-16T22:14:20.284Z,99114.91
2022-11-16T22:16:48.077Z,99118.50
2022-11-16T22:19:15.505Z,99114.84
2022-11-16T22:21:42.899Z,99124.69
2022-11-16T22:24:10.624Z,99109.25
2022-11-16T22:26:39.884Z,99114.19
2022-11-16T22:29:07.357Z,99114.91
2022-11-16T22:31:36.125Z,99097.91
2022-11-16T22:34:03.568Z,99111.56
2022-11-16T22:36:31.019Z,99108.19
2022-11-16T22:38:58.933Z,99097.81
2022-11-16T22:41:26.424Z,99093.06
2022-11-16T22:43:53.881Z,99108.31
2022-11-16T22:46:21.652Z,99113.66
2022-11-16T22:48:49.126Z,99113.94
2022-11-16T22:51:26.229Z,99115.53
2022-11-16T22:53:55.240Z,99116.69
2022-11-16T22:56:22.790Z,99118.00
2022-11-16T22:58:50.688Z,99116.16
2022-11-16T23:01:18.804Z,99119.06
2022-11-16T23:03:46.550Z,99116.81
2022-11-16T23:06:14.269Z,99127.81
2022-11-16T23:08:42.995Z,99114.34
2022-11-16T23:11:34.736Z,99130.84
2022-11-16T23:14:22.194Z,99123.16
2022-11-16T23:16:49.823Z,99123.66
2022-11-16T23:19:37.376Z,99131.06
2022-11-16T23:22:23.866Z,99120.97
2022-11-16T23:25:10.145Z,99125.44
2022-11-16T23:27:51.339Z,99129.78
2022-11-16T23:30:19.175Z,99123.59
2022-11-16T23:32:46.738Z,99117.06
2022-11-16T23:35:14.263Z,99116.69
2022-11-16T23:38:03.043Z,99105.00
2022-11-16T23:40:34.030Z,99099.19
2022-11-16T23:43:20.385Z,99105.09
2022-11-16T23:45:47.957Z,99109.03
2022-11-16T23:48:17.198Z,99099.28
2022-11-16T23:50:45.842Z,99094.13
2022-11-16T23:53:13.581Z,99088.16
2022-11-16T23:55:41.469Z,99070.28
2022-11-16T23:58:13.660Z,99070.84
